Flight Track Log - Related Links

Times and Time Zones

All times are in EDT time to prevent confusion due to time zone crossing. See the DAL1117 flight status page for this flight to view local times or setup timezone preferences in your user account.

Time Position Orientation Groundspeed Altitude Reporting Facility
EDT Latitude Longitude Course Direction KTS MPH feet Rate Location/Type
Sun 09:41:41 PM 42.2036 -83.3556 292° West 151 174 1,400  Level Cleveland Center
Sun 09:42:42 PM 42.1711 -83.4044 228° Southwest 208 239 2,900 1,516 Climbing Cleveland Center
Sun 09:43:16 PM 42.1453 -83.4481 231° Southwest 252 290 3,800 2,222 Climbing Cleveland Center
Sun 09:43:36 PM 42.1342 -83.4756 241° Southwest 264 304 4,900 3,200 Climbing Cleveland Center
Sun 09:44:00 PM 42.3065 -83.7659 285° West  Level FlightAware
Sun 09:44:16 PM 42.1389 -83.5319 276° West 275 316 7,000  Level Cleveland Center
Sun 09:44:43 PM 42.1567 -83.5692 303° West 275 316 8,200 2,900 Climbing Cleveland Center
Sun 09:45:00 PM 42.3430 -83.9043 292° West  Level FlightAware
Sun 09:45:16 PM 42.1803 -83.6264 299° West 275 316 9,900  Level Cleveland Center
Sun 09:46:00 PM 42.3839 -84.0408 292° West  Level FlightAware
Sun 09:46:16 PM 42.2214 -83.7208 300° West 303 349 11,100  Level Cleveland Center
Sun 09:47:16 PM 42.2725 -83.8356 301° West 330 380 13,100 2,200 Climbing Cleveland Center
Sun 09:48:16 PM 42.3253 -83.9564 301° West 358 412 15,500 2,400 Climbing Cleveland Center
Sun 09:49:16 PM 42.3778 -84.0800 300° West 372 428 17,900 1,800 Climbing Cleveland Center
Sun 09:50:16 PM 42.4239 -84.2119 295° West 377 434 19,100 1,533 Climbing Cleveland Center
Sun 09:52:16 PM 42.4325 -84.5136 272° West 392 451 22,500 1,612 Climbing Cleveland Center
Sun 09:53:37 PM 42.4422 -84.7119 274° West 411 473 24,500 1,385 Climbing Chicago Center
Sun 09:54:39 PM 42.4450 -84.8719 271° West 423 487 25,800 1,171 Climbing Chicago Center
Sun 09:55:40 PM 42.4481 -85.0317 272° West 425 489 26,900 1,122 Climbing Chicago Center
Sun 09:56:42 PM 42.4514 -85.1942 272° West 430 495 28,100 1,122 Climbing Chicago Center
Sun 09:57:43 PM 42.4550 -85.3567 272° West 431 496 29,200 1,024 Climbing Chicago Center
Sun 09:58:45 PM 42.4575 -85.5194 271° West 432 497 30,200 1,073 Climbing Chicago Center
Sun 09:59:46 PM 42.4611 -85.6806 272° West 429 494 31,400 1,122 Climbing Chicago Center
Sun 10:00:48 PM 42.4628 -85.8408 271° West 426 490 32,500 1,024 Climbing Chicago Center
Sun 10:01:49 PM 42.4650 -86.0314 271° West 423 487 33,500 738 Climbing Chicago Center
Sun 10:02:50 PM 42.4553 -86.1861 265° West 415 478 34,000 244 Climbing Chicago Center
Sun 10:03:52 PM 42.4361 -86.3411 261° West 416 479 34,000  Level Chicago Center
Sun 10:04:53 PM 42.4158 -86.4956 260° West 416 479 34,000  Level Chicago Center
Sun 10:05:55 PM 42.3964 -86.6503 260° West 416 479 34,000  Level Chicago Center
Sun 10:06:56 PM 42.3797 -86.8000 261° West 417 480 34,000  Level Chicago Center
Sun 10:07:57 PM 42.3583 -86.9539 259° West 419 482 34,000  Level Chicago Center
Sun 10:08:59 PM 42.3325 -87.1367 259° West 415 478 34,000  Level Chicago Center
Sun 10:10:00 PM 42.3122 -87.2917 260° West 420 483 34,000  Level Chicago Center
Sun 10:11:01 PM 42.2914 -87.4456 260° West 420 483 34,000  Level Chicago Center
Sun 10:12:03 PM 42.2700 -87.6025 260° West 425 489 34,000  Level Chicago Center
Sun 10:13:04 PM 42.2489 -87.7564 260° West 422 486 34,000  Level Chicago Center
Sun 10:14:05 PM 42.2272 -87.9094 259° West 420 483 34,000  Level Chicago Center
Sun 10:15:07 PM 42.2028 -88.0608 258° West 418 481 34,000  Level Chicago Center
Sun 10:16:08 PM 42.1703 -88.2431 257° West 420 483 34,000  Level Chicago Center
Sun 10:17:09 PM 42.1433 -88.3939 257° West 418 481 34,000  Level Chicago Center
Sun 10:18:10 PM 42.1164 -88.5453 257° West 419 482 34,000  Level Chicago Center
Sun 10:19:11 PM 42.0894 -88.6947 256° West 417 480 34,000  Level Chicago Center
Sun 10:20:12 PM 42.0617 -88.8453 256° West 418 481 34,000  Level Chicago Center
Sun 10:21:14 PM 42.0347 -88.9950 256° West 417 480 34,000  Level Chicago Center
Sun 10:22:15 PM 42.0067 -89.1453 256° West 417 480 34,000  Level Chicago Center
Sun 10:23:16 PM 41.9722 -89.3253 256° West 418 481 34,000  Level Chicago Center
Sun 10:24:17 PM 41.9453 -89.4744 256° West 417 480 34,000  Level Chicago Center
Sun 10:25:18 PM 41.9164 -89.6233 255° West 415 478 34,000  Level Chicago Center
Sun 10:26:20 PM 41.8883 -89.7722 256° West 414 476 34,000  Level Chicago Center
Sun 10:27:21 PM 41.8586 -89.9339 256° West 415 478 34,000  Level Chicago Center
Sun 10:28:22 PM 41.8311 -90.0814 256° West 412 474 34,000  Level Chicago Center
Sun 10:29:23 PM 41.8003 -90.2308 255° West 416 479 34,000  Level Chicago Center
Sun 10:30:24 PM 41.7731 -90.3719 256° West 423 487 34,000  Level Chicago Center
Sun 10:31:25 PM 41.7431 -90.5222 255° West 420 483 34,000  Level Chicago Center
Sun 10:32:26 PM 41.7117 -90.6803 255° West 416 479 34,000  Level Chicago Center
Sun 10:33:28 PM 41.6817 -90.8289 255° West 416 479 34,000  Level Chicago Center
Sun 10:34:29 PM 41.6514 -90.9769 255° West 416 479 34,000  Level Chicago Center
Sun 10:35:30 PM 41.6208 -91.1264 255° West 417 480 34,000  Level Chicago Center
Sun 10:36:31 PM 41.5839 -91.3056 255° West 418 481 34,000  Level Chicago Center
Sun 10:37:32 PM 41.5533 -91.4550 255° West 419 482 34,000  Level Chicago Center
Sun 10:38:33 PM 41.5225 -91.6036 255° West 417 480 34,000  Level Chicago Center
Sun 10:39:34 PM 41.5069 -91.7558 262° West 417 480 34,000  Level Chicago Center
Sun 10:40:35 PM 41.4922 -91.9081 263° West 416 479 34,000  Level Chicago Center
Sun 10:41:36 PM 41.4781 -92.0608 263° West 418 481 34,000  Level Chicago Center
Sun 10:42:37 PM 41.4633 -92.2114 263° West 415 478 34,000  Level Chicago Center
Sun 10:43:38 PM 41.4475 -92.3603 262° West 410 472 34,000  Level Chicago Center
Sun 10:44:39 PM 41.4300 -92.5319 262° West 409 471 34,000  Level Chicago Center
Sun 10:45:40 PM 41.4144 -92.6789 262° West 406 467 34,000  Level Chicago Center
Sun 10:46:41 PM 41.4003 -92.8281 263° West 410 472 34,000  Level Chicago Center
Sun 10:47:21 PM 41.3908 -92.9197 262° West 410 472 34,000  Level Minneapolis Center
Sun 10:48:22 PM 41.3747 -93.0708 262° West 415 478 34,000  Level Minneapolis Center
Sun 10:49:23 PM 41.3581 -93.2206 262° West 415 478 34,000  Level Minneapolis Center
Sun 10:50:24 PM 41.3389 -93.3986 262° West 412 474 34,000  Level Minneapolis Center
Sun 10:51:25 PM 41.3228 -93.5456 262° West 408 470 34,000  Level Minneapolis Center
Sun 10:52:26 PM 41.3078 -93.6908 262° West 403 464 34,000  Level Minneapolis Center
Sun 10:53:39 PM 41.2911 -93.8397 262° West 409 471 34,000  Level Minneapolis Center
Sun 10:54:40 PM 41.2714 -94.0178 262° West 410 472 34,000  Level Minneapolis Center
Sun 10:55:41 PM 41.2528 -94.1669 261° West 411 473 34,000  Level Minneapolis Center
Sun 10:56:42 PM 41.2344 -94.3306 262° West 406 467 34,000 393 Level Minneapolis Center
Sun 10:57:43 PM 41.2175 -94.4750 261° West 399 459 34,800 738 Climbing Minneapolis Center
Sun 10:58:44 PM 41.1994 -94.6172 260° West 393 452 35,500 590 Climbing Minneapolis Center
Sun 10:59:45 PM 41.1833 -94.7589 261° West 389 448 36,000 244 Climbing Minneapolis Center
Sun 11:00:47 PM 41.1664 -94.9028 261° West 392 451 36,000  Level Minneapolis Center
Sun 11:01:48 PM 41.1481 -95.0492 261° West 398 458 36,000  Level Minneapolis Center
Sun 11:02:49 PM 41.1297 -95.1931 260° West 397 457 36,000  Level Minneapolis Center
Sun 11:03:50 PM 41.1114 -95.3358 260° West 393 452 36,000  Level Minneapolis Center
Sun 11:04:51 PM 41.0931 -95.4761 260° West 389 448 36,000  Level Minneapolis Center
Sun 11:05:52 PM 41.0747 -95.6172 260° West 387 445 36,000  Level Minneapolis Center
Sun 11:06:53 PM 41.0528 -95.7881 260° West 390 449 36,000  Level Minneapolis Center
Sun 11:07:54 PM 41.0339 -95.9292 260° West 387 445 36,000  Level Minneapolis Center
Sun 11:08:55 PM 41.0164 -96.0667 260° West 379 436 36,000  Level Minneapolis Center
Sun 11:09:56 PM 40.9972 -96.2056 260° West 379 436 36,000  Level Minneapolis Center
Sun 11:10:57 PM 40.9781 -96.3450 260° West 382 440 36,000  Level Minneapolis Center
Sun 11:11:58 PM 40.9594 -96.4850 260° West 383 441 36,000  Level Minneapolis Center
Sun 11:12:59 PM 40.9403 -96.6272 260° West 389 448 36,000  Level Minneapolis Center
Sun 11:14:00 PM 40.9208 -96.7667 260° West 387 445 36,000  Level Minneapolis Center
Sun 11:15:01 PM 40.9067 -96.9103 263° West 391 450 36,000  Level Minneapolis Center
Sun 11:16:02 PM 40.8936 -97.0533 263° West 391 450 36,000  Level Minneapolis Center
Sun 11:17:03 PM 40.8806 -97.1969 263° West 393 452 36,000  Level Minneapolis Center
Sun 11:18:04 PM 40.8664 -97.3367 262° West 387 445 36,000  Level Minneapolis Center
Sun 11:19:05 PM 40.8508 -97.4953 263° West 394 453 36,000  Level Minneapolis Center
Sun 11:20:05 PM 40.8356 -97.6428 262° West 402 463 36,000  Level Minneapolis Center
Sun 11:21:06 PM 40.8211 -97.7883 263° West 401 461 36,000  Level Minneapolis Center
Sun 11:22:07 PM 40.8056 -97.9342 262° West 399 459 36,000  Level Minneapolis Center
Sun 11:23:08 PM 40.7908 -98.0803 262° West 401 461 36,000  Level Minneapolis Center
Sun 11:24:09 PM 40.7753 -98.2292 262° West 405 466 36,000 49 Level Minneapolis Center
Sun 11:25:10 PM 40.7592 -98.3786 262° West 408 470 36,100  Climbing Minneapolis Center
Sun 11:26:11 PM 40.7419 -98.5272 261° West 408 470 36,000 -50 Descending Minneapolis Center
Sun 11:27:11 PM 40.7275 -98.6750 263° West 405 466 36,000  Level Minneapolis Center
Sun 11:28:24 PM 40.7097 -98.8217 261° West 403 464 36,000  Level Minneapolis Center
Sun 11:29:25 PM 40.6903 -98.9972 262° West 401 461 36,000  Level Minneapolis Center
Sun 11:30:26 PM 40.6739 -99.1433 262° West 400 460 36,000  Level Minneapolis Center
Sun 11:30:49 PM 40.6667 -99.2019 261° West 403 464 36,000  Level Denver Center
Sun 11:31:50 PM 40.6500 -99.3494 262° West 406 467 36,000  Level Denver Center
Sun 11:32:51 PM 40.6325 -99.4981 261° West 409 471 36,000  Level Denver Center
Sun 11:33:52 PM 40.6150 -99.6481 261° West 414 476 36,000  Level Denver Center
Sun 11:34:53 PM 40.5961 -99.7956 260° West 410 472 36,000  Level Denver Center
Sun 11:35:55 PM 40.5789 -99.9442 261° West 409 471 36,000  Level Denver Center
Sun 11:36:56 PM 40.5589 -100.1086 261° West 408 470 36,000  Level Denver Center
Sun 11:37:57 PM 40.5400 -100.2494 260° West 407 468 36,000  Level Denver Center
Sun 11:38:58 PM 40.5231 -100.3922 261° West 410 472 36,000  Level Denver Center
Sun 11:39:59 PM 40.5014 -100.5572 260° West 410 472 36,000  Level Denver Center
Sun 11:41:01 PM 40.4831 -100.6983 260° West 407 468 36,000  Level Denver Center
Sun 11:42:14 PM 40.4594 -100.8844 261° West 401 461 36,000  Level Denver Center
Sun 11:43:15 PM 40.4450 -100.9992 261° West 399 459 36,000  Level Denver Center
Sun 11:44:16 PM 40.4236 -101.1594 260° West 398 458 36,000  Level Denver Center
Sun 11:45:18 PM 40.4006 -101.3203 259° West 400 460 36,000  Level Denver Center
Sun 11:46:19 PM 40.3819 -101.4589 260° West 402 463 36,000  Level Denver Center
Sun 11:47:20 PM 40.3586 -101.6186 259° West 400 460 36,000  Level Denver Center
Sun 11:48:21 PM 40.3389 -101.7575 259° West 404 465 36,000  Level Denver Center
Sun 11:49:22 PM 40.3189 -101.8964 259° West 404 465 36,000  Level Denver Center
Sun 11:50:23 PM 40.2956 -102.0581 259° West 405 466 36,000  Level Denver Center
Sun 11:51:24 PM 40.2761 -102.1958 260° West 404 465 36,000  Level Denver Center
Sun 11:52:25 PM 40.2556 -102.3333 259° West 399 459 36,000  Level Denver Center
Sun 11:53:27 PM 40.2319 -102.4906 259° West 395 455 36,000  Level Denver Center
Sun 11:54:28 PM 40.2119 -102.6239 259° West 391 450 36,000  Level Denver Center
Sun 11:55:29 PM 40.1922 -102.7617 259° West 390 449 36,000  Level Denver Center
Sun 11:56:30 PM 40.1714 -102.9025 259° West 391 450 36,000  Level Denver Center
Sun 11:57:31 PM 40.1483 -103.0431 258° West 392 451 36,000  Level Denver Center
Sun 11:58:32 PM 40.1281 -103.1839 259° West 392 451 36,000  Level Denver Center
Sun 11:59:34 PM 40.1019 -103.3481 258° West 393 452 36,000  Level Denver Center
Mon 12:00:35 AM 40.0806 -103.4889 259° West 394 453 36,000  Level Denver Center
Mon 12:01:36 AM 40.0581 -103.6289 258° West 391 450 36,000  Level Denver Center
Mon 12:02:37 AM 40.0358 -103.7681 258° West 390 449 36,000  Level Denver Center
Mon 12:03:38 AM 40.0139 -103.9103 259° West 395 455 36,000  Level Denver Center
Mon 12:04:39 AM 39.9906 -104.0492 258° West 390 449 36,000  Level Denver Center
Mon 12:05:40 AM 39.9683 -104.1889 258° West 390 449 36,000  Level Denver Center
Mon 12:06:41 AM 39.9447 -104.3275 258° West 388 447 36,000  Level Denver Center
Mon 12:07:42 AM 39.9256 -104.4417 258° West 386 444 36,000  Level Denver Center
Mon 12:08:43 AM 39.8997 -104.6000 258° West 383 441 36,000  Level Denver Center
Mon 12:09:44 AM 39.8739 -104.7314 256° West 375 432 36,000  Level Denver Center
Mon 12:10:45 AM 39.8489 -104.8636 256° West 378 435 36,000  Level Denver Center
Mon 12:11:46 AM 39.8236 -104.9936 256° West 373 429 36,000  Level Denver Center
Mon 12:12:47 AM 39.7981 -105.1275 256° West 380 437 36,000  Level Denver Center
Mon 12:13:48 AM 39.7717 -105.2594 255° West 376 433 36,000  Level Denver Center
Mon 12:14:49 AM 39.7450 -105.3942 256° West 384 442 36,000  Level Denver Center
Mon 12:15:50 AM 39.7186 -105.5272 256° West 380 437 36,000  Level Denver Center
Mon 12:16:51 AM 39.6875 -105.6839 256° West 380 437 36,000  Level Denver Center
Mon 12:17:52 AM 39.6683 -105.7744 255° West 386 444 36,000 49 Level Denver Center
Mon 12:18:53 AM 39.6344 -105.9514 256° West 380 437 36,100  Climbing Denver Center
Mon 12:19:54 AM 39.6067 -106.0844 255° West 379 436 36,000 -49 Descending Denver Center
Mon 12:20:55 AM 39.5847 -106.1964 256° West 369 425 36,000  Level Denver Center
Mon 12:21:56 AM 39.5586 -106.3256 255° West 370 426 36,000  Level Denver Center
Mon 12:23:08 AM 39.5322 -106.4542 255° West 370 426 36,000  Level Denver Center
Mon 12:24:10 AM 39.4981 -106.6153 255° West 370 426 36,000  Level Denver Center
Mon 12:25:11 AM 39.4678 -106.7578 255° West 368 423 36,000  Level Denver Center
Mon 12:26:11 AM 39.4411 -106.8814 254° West 370 426 36,000  Level Denver Center
Mon 12:27:12 AM 39.4119 -107.0044 253° West 373 429 36,000  Level Denver Center
Mon 12:28:13 AM 39.3758 -107.1486 252° West 378 435 36,000  Level Denver Center
Mon 12:29:14 AM 39.3450 -107.2722 252° West 378 435 36,000  Level Denver Center
Mon 12:30:15 AM 39.3083 -107.4153 252° West 376 433 36,000  Level Denver Center
Mon 12:31:16 AM 39.2767 -107.5392 252° West 378 435 36,000  Level Denver Center
Mon 12:32:17 AM 39.2458 -107.6603 252° West 373 429 36,000  Level Denver Center
Mon 12:33:18 AM 39.2081 -107.8047 251° West 379 436 36,000  Level Denver Center
Mon 12:34:18 AM 39.1769 -107.9275 252° West 377 434 36,000  Level Denver Center
Mon 12:35:19 AM 39.1453 -108.0500 252° West 375 432 36,000  Level Denver Center
Mon 12:36:32 AM 39.1136 -108.1708 251° West 372 428 36,000  Level Denver Center
Mon 12:37:33 AM 39.0714 -108.3319 251° West 371 427 36,000  Level Denver Center
Mon 12:38:34 AM 39.0383 -108.4561 251° West 377 434 36,000  Level Denver Center
Mon 12:39:35 AM 39.0006 -108.5981 251° West 375 432 36,000  Level Denver Center
Mon 12:40:35 AM 38.9681 -108.7197 251° West 374 430 36,000  Level Denver Center
Mon 12:41:36 AM 38.9344 -108.8414 250° West 377 434 36,000  Level Denver Center
Mon 12:42:37 AM 38.8969 -108.9839 251° West 376 433 36,000  Level Denver Center
Mon 12:43:38 AM 38.8636 -109.1056 251° West 377 434 36,000  Level Denver Center
Mon 12:44:39 AM 38.8300 -109.2292 251° West 382 440 36,000  Level Denver Center
Mon 12:45:51 AM 38.7919 -109.3717 251° West 378 435 36,000  Level Denver Center
Mon 12:46:52 AM 38.7517 -109.5167 250° West 383 441 36,000  Level Denver Center
Mon 12:47:53 AM 38.7228 -109.6181 250° West 380 437 36,000  Level Denver Center
Mon 12:48:54 AM 38.6772 -109.7842 251° West 388 447 36,000  Level Denver Center
Mon 12:49:55 AM 38.6422 -109.9081 250° West 389 448 36,000  Level Denver Center
Mon 12:50:55 AM 38.6011 -110.0519 250° West 385 443 36,000  Level Denver Center
Mon 12:51:56 AM 38.5664 -110.1778 251° West 392 451 36,000  Level Denver Center
Mon 12:52:28 AM 38.5497 -110.2408 251° West 390 449 36,000  Level Salt Center
Mon 12:53:29 AM 38.5086 -110.3883 250° West 393 452 36,000  Level Salt Center
Mon 12:54:10 AM 38.4833 -110.4706 249° West 394 453 36,000  Level Denver Center
Mon 12:55:11 AM 38.4458 -110.5969 249° West 397 457 36,000  Level Denver Center
Mon 12:55:31 AM 38.4342 -110.6397 251° West 397 457 36,000  Level Salt Center
Mon 12:56:32 AM 38.3836 -110.7847 246° West 403 464 36,000  Level Salt Center
Mon 12:57:33 AM 38.3753 -110.9108 265° West 379 436 36,000  Level Salt Center
Mon 12:58:34 AM 38.3861 -111.0431 276° West 370 426 36,000  Level Salt Center
Mon 12:59:35 AM 38.3717 -111.1756 262° West 387 445 36,000  Level Salt Center
Mon 01:00:36 AM 38.3058 -111.2900 234° Southwest 401 461 36,000  Level Salt Center
Mon 01:01:37 AM 38.2361 -111.4061 233° Southwest 410 472 36,000  Level Salt Center
Mon 01:02:38 AM 38.1675 -111.5250 234° Southwest 417 480 36,000 49 Level Salt Center
Mon 01:03:39 AM 38.0956 -111.6428 232° Southwest 422 486 36,100  Climbing Salt Center
Mon 01:04:40 AM 38.0267 -111.7589 233° Southwest 415 478 36,000 -49 Descending Salt Center
Mon 01:05:41 AM 37.9544 -111.8764 232° Southwest 420 483 36,000  Level Salt Center
Mon 01:06:42 AM 37.8711 -112.0164 233° Southwest 416 479 36,000  Level Salt Center
Mon 01:07:43 AM 37.7986 -112.1331 232° Southwest 421 484 36,000  Level Salt Center
Mon 01:08:43 AM 37.7258 -112.2536 233° Southwest 428 493 36,000  Level Salt Center
Mon 01:09:44 AM 37.6542 -112.3708 232° Southwest 424 488 36,000  Level Salt Center
Mon 01:10:45 AM 37.5842 -112.4831 232° Southwest 412 474 36,000  Level Salt Center
Mon 01:11:46 AM 37.5122 -112.5992 232° Southwest 414 476 36,000 -98 Level Salt Center
Mon 01:12:47 AM 37.4386 -112.7175 232° Southwest 419 482 35,800 -590 Descending Salt Center
Mon 01:13:48 AM 37.3631 -112.8369 232° Southwest 426 490 34,800 -984 Descending Salt Center
Mon 01:14:49 AM 37.2900 -112.9539 232° Southwest 425 489 33,800 -992 Descending Salt Center
Mon 01:15:49 AM 37.2186 -113.0692 232° Southwest 420 483 32,800 -942 Descending Salt Center
Mon 01:16:50 AM 37.1467 -113.1850 232° Southwest 419 482 31,900 -934 Descending Salt Center
Mon 01:17:51 AM 37.0714 -113.3019 231° Southwest 427 491 30,900 -984 Descending Salt Center
Mon 01:18:52 AM 36.9956 -113.4228 232° Southwest 437 503 29,900 -992 Descending Salt Center
Mon 01:19:52 AM 36.9194 -113.5447 232° Southwest 443 510 28,900 -942 Descending Salt Center
Mon 01:20:53 AM 36.8450 -113.6625 232° Southwest 435 501 28,000 -934 Descending Los Center
Mon 01:21:54 AM 36.7719 -113.7769 231° Southwest 424 488 27,000 -1,721 Descending Los Center
Mon 01:22:55 AM 36.7028 -113.8858 232° Southwest 405 466 24,500 -2,410 Descending Los Center
Mon 01:23:56 AM 36.6358 -113.9894 231° Southwest 386 444 22,100 -2,262 Descending Los Center
Mon 01:24:57 AM 36.5725 -114.0881 231° Southwest 370 426 19,900 -2,262 Descending Los Center
Mon 01:25:58 AM 36.5258 -114.1958 242° Southwest 359 413 17,500 -2,602 Descending Los Center
Mon 01:26:20 AM 36.5067 -114.2486 246° West 362 417 16,300 -2,754 Descending Los Center
Mon 01:26:59 AM 36.4697 -114.3158 236° Southwest 344 396 14,700 -2,079 Descending Los Center
Mon 01:28:01 AM 36.4228 -114.4175 240° Southwest 341 392 12,800 -1,366 Descending Los Center
Mon 01:29:02 AM 36.3714 -114.5153 237° Southwest 339 390 11,900 -689 Descending Los Center
Mon 01:30:03 AM 36.3186 -114.6125 236° Southwest 338 389 11,400 -1,467 Descending Los Center
Mon 01:31:17 AM 36.2581 -114.7264 237° Southwest 295 339 8,600 -2,115 Descending Los Center
Mon 01:32:05 AM 36.2267 -114.7811 235° Southwest 301 346 7,100 -793 Descending Los Center
Mon 01:33:18 AM 36.1806 -114.8664 236° Southwest 262 302 7,000 -279 Descending Los Center
Mon 01:34:14 AM 36.1519 -114.9219 237° Southwest 187 215 6,500 -724 Descending Los Center
Mon 01:35:14 AM 36.1336 -114.9761 247° West 186 214 5,600 -1,041 Descending Los Center
Mon 01:36:15 AM 36.1392 -115.0408 276° West 178 205 4,400 -1,131 Descending Los Center
Mon 01:37:16 AM 36.1383 -115.0969 269° West 159 183 3,300 -893 Descending Los Center
Mon 01:38:16 AM 36.1197 -115.1406 242° Southwest 146 168 2,600 -609 Descending Los Center
Mon 01:39:24 AM 36.0889 -115.1578 204° Southwest 141 162 2,000 -529 Descending Los Center

Login

Don't have an account? Register now (free) for customized features, flight alerts, and more!